Time;durP1;ratioP1;P1;durP2;ratioP2;P2;SDS_P1;SDS_P2;PMS_P1;PMS_P2;Temp;Humidity;BMP_temperature;BMP_pressure;BME280_temperature;BME280_humidity;BME280_pressure;Samples;Min_cycle;Max_cycle;Signal;HPM_P1;HPM_P2
2021/12/13 00:01:05;;;;;;;8.30;7.07;;;;;;;4.90;78.39;100680.63;4946536;29;20506;-77
2021/12/13 00:03:40;;;;;;;7.47;6.60;;;;;;;4.87;77.99;100673.72;4947471;28;20567;-76
2021/12/13 00:06:10;;;;;;;9.00;5.65;;;;;;;4.83;78.12;100674.69;4951042;29;20227;-76
2021/12/13 00:08:38;;;;;;;8.68;6.35;;;;;;;4.80;77.96;100675.59;4950528;28;20549;-76
2021/12/13 00:11:23;;;;;;;11.05;6.85;;;;;;;4.75;77.58;100674.00;4950023;29;20221;-76
2021/12/13 00:13:54;;;;;;;8.43;6.10;;;;;;;4.73;77.77;100668.00;4950784;28;20228;-77
2021/12/13 00:16:34;;;;;;;7.18;6.40;;;;;;;4.71;77.71;100669.78;4948781;29;20236;-76
2021/12/13 00:19:03;;;;;;;8.98;6.28;;;;;;;4.72;77.63;100671.47;4950061;29;20537;-76
2021/12/13 00:21:39;;;;;;;7.35;6.30;;;;;;;4.69;77.82;100667.19;4949460;28;20212;-76
2021/12/13 00:24:31;;;;;;;7.50;6.13;;;;;;;4.72;77.49;100666.25;4949556;28;20209;-76
2021/12/13 00:27:06;;;;;;;7.45;5.78;;;;;;;4.73;77.59;100671.44;4949721;29;20300;-77
2021/12/13 00:30:06;;;;;;;7.28;6.00;;;;;;;4.75;77.55;100666.19;4949359;28;20686;-77
2021/12/13 00:32:52;;;;;;;9.30;7.88;;;;;;;4.93;77.19;100668.38;4932329;28;20534;-78
2021/12/13 00:35:25;;;;;;;8.93;6.28;;;;;;;4.90;76.87;100672.81;4922488;29;20248;-76
2021/12/13 00:37:57;;;;;;;8.63;6.22;;;;;;;4.87;77.24;100669.38;4949472;28;20248;-76
2021/12/13 00:40:28;;;;;;;7.60;6.13;;;;;;;4.84;77.39;100677.25;4949200;29;20216;-78
2021/12/13 00:43:00;;;;;;;7.32;6.28;;;;;;;4.83;77.12;100674.69;4948870;28;20251;-78
2021/12/13 00:45:28;;;;;;;9.25;7.82;;;;;;;4.84;76.94;100673.81;4946701;29;20204;-77
2021/12/13 00:47:53;;;;;;;8.25;7.10;;;;;;;4.82;77.04;100680.78;4949174;28;20205;-79
2021/12/13 00:50:23;;;;;;;10.77;8.07;;;;;;;4.80;77.25;100680.81;4948298;29;20251;-76
2021/12/13 00:52:51;;;;;;;7.70;6.72;;;;;;;4.78;77.07;100680.00;4948926;28;20769;-76
2021/12/13 00:55:23;;;;;;;10.20;7.43;;;;;;;4.78;76.93;100674.81;4947548;29;20566;-76
2021/12/13 00:57:53;;;;;;;7.72;6.90;;;;;;;4.77;77.09;100675.69;4948344;29;20201;-78
2021/12/13 01:00:32;;;;;;;8.38;6.28;;;;;;;4.78;77.00;100680.00;4948897;29;20601;-77
2021/12/13 01:03:02;;;;;;;10.25;6.88;;;;;;;4.78;76.71;100672.19;4948113;28;20232;-78
2021/12/13 01:05:52;;;;;;;10.50;7.40;;;;;;;4.76;77.10;100667.91;4948693;29;20220;-76
2021/12/13 01:08:56;;;;;;;7.47;6.30;;;;;;;4.73;77.00;100657.59;4948410;29;20212;-76
2021/12/13 01:11:47;;;;;;;9.25;6.70;;;;;;;4.73;77.06;100655.84;4948861;29;20224;-76
2021/12/13 01:14:27;;;;;;;8.65;6.85;;;;;;;4.72;76.95;100661.91;4947304;29;20693;-77
2021/12/13 01:19:32;;;;;;;9.65;7.40;;;;;;;4.74;77.06;100648.88;4948203;29;20621;-78
2021/12/13 01:22:28;;;;;;;8.82;7.40;;;;;;;4.75;77.17;100645.38;4948026;28;20220;-76
2021/12/13 01:27:31;;;;;;;11.80;6.60;;;;;;;4.73;77.16;100637.63;4948448;29;20204;-76
2021/12/13 01:29:56;;;;;;;8.02;7.25;;;;;;;4.73;77.16;100648.03;4941877;29;20337;-76
2021/12/13 01:32:24;;;;;;;10.43;8.10;;;;;;;4.88;77.21;100646.78;4946496;28;20483;-77
2021/12/13 01:34:50;;;;;;;10.18;7.72;;;;;;;4.82;77.31;100646.94;4948107;29;20479;-77
2021/12/13 01:37:17;;;;;;;9.23;7.57;;;;;;;4.77;77.70;100648.81;4947962;29;20197;-77
2021/12/13 01:39:50;;;;;;;8.43;7.40;;;;;;;4.73;77.77;100644.56;4947679;29;20804;-77
2021/12/13 01:42:19;;;;;;;9.63;7.03;;;;;;;4.72;77.78;100650.66;4947729;28;20320;-77
2021/12/13 01:44:49;;;;;;;9.52;8.20;;;;;;;4.70;77.68;100653.31;4948235;29;20205;-77
2021/12/13 01:47:22;;;;;;;9.20;8.30;;;;;;;4.69;77.67;100637.72;4947149;28;20651;-79
2021/12/13 01:50:02;;;;;;;10.68;8.75;;;;;;;4.66;77.61;100638.63;4948217;28;20215;-78
2021/12/13 01:52:31;;;;;;;10.68;7.65;;;;;;;4.63;77.85;100641.31;4948069;28;20252;-77
2021/12/13 01:55:01;;;;;;;11.23;7.55;;;;;;;4.60;77.78;100642.22;4947690;29;20323;-78
2021/12/13 02:00:44;;;;;;;8.90;7.40;;;;;;;4.50;78.21;100640.72;4944923;28;20727;-78
2021/12/13 02:03:11;;;;;;;9.38;7.78;;;;;;;4.47;78.33;100639.94;4947226;28;20771;-79
2021/12/13 02:05:37;;;;;;;7.72;6.78;;;;;;;4.41;78.35;100646.97;4947303;28;20264;-77
2021/12/13 02:08:14;;;;;;;7.30;6.50;;;;;;;4.34;78.51;100645.41;4947232;28;20220;-78
2021/12/13 02:10:42;;;;;;;7.25;6.10;;;;;;;4.30;78.66;100645.50;4946858;29;20604;-77
2021/12/13 02:13:16;;;;;;;10.02;6.18;;;;;;;4.27;78.71;100648.19;4947609;28;20232;-77
2021/12/13 02:18:36;;;;;;;8.65;6.75;;;;;;;4.18;79.02;100638.81;4947484;29;20591;-77
2021/12/13 02:21:22;;;;;;;8.25;7.50;;;;;;;4.15;79.03;100644.94;4947871;29;20566;-77
2021/12/13 02:23:50;;;;;;;7.53;6.82;;;;;;;4.12;78.56;100650.19;4947554;28;20232;-77
2021/12/13 02:26:17;;;;;;;8.55;6.93;;;;;;;4.10;78.64;100657.16;4936106;28;20204;-78
2021/12/13 02:28:48;;;;;;;10.30;6.85;;;;;;;4.08;78.74;100650.28;4946095;28;20241;-77
2021/12/13 02:31:25;;;;;;;8.02;6.80;;;;;;;4.03;78.91;100650.38;4947134;29;20205;-77
2021/12/13 02:33:54;;;;;;;7.82;6.25;;;;;;;4.01;78.72;100665.16;4947126;28;20244;-76
2021/12/13 02:36:24;;;;;;;9.38;6.53;;;;;;;3.98;78.98;100667.81;4946074;29;20312;-78
2021/12/13 02:38:53;;;;;;;6.57;6.03;;;;;;;3.94;78.94;100660.94;4947065;28;20259;-78
2021/12/13 02:41:24;;;;;;;9.48;7.45;;;;;;;3.93;78.99;100669.66;4946742;29;20207;-77
2021/12/13 02:43:54;;;;;;;8.10;7.25;;;;;;;3.91;78.78;100661.00;4956867;28;20305;-78
2021/12/13 02:46:20;;;;;;;8.35;6.57;;;;;;;3.87;78.71;100662.81;4964226;29;20212;-78
2021/12/13 02:48:55;;;;;;;8.75;7.68;;;;;;;3.85;78.64;100661.16;4948089;28;20205;-76
2021/12/13 02:51:26;;;;;;;6.82;6.20;;;;;;;3.84;78.98;100669.84;4948101;29;20208;-76
2021/12/13 02:53:56;;;;;;;8.52;6.82;;;;;;;3.80;78.92;100674.22;4948193;28;20467;-78
2021/12/13 02:56:29;;;;;;;9.15;7.50;;;;;;;3.76;79.02;100677.78;4946004;28;20332;-78
2021/12/13 02:58:57;;;;;;;6.25;5.65;;;;;;;3.72;78.95;100681.28;4947530;28;20233;-78
2021/12/13 03:01:22;;;;;;;9.98;6.15;;;;;;;3.67;79.25;100678.81;4946312;28;20197;-78
2021/12/13 03:03:54;;;;;;;7.90;6.37;;;;;;;3.62;79.39;100677.16;4944511;28;20260;-77
2021/12/13 03:06:23;;;;;;;7.53;6.47;;;;;;;3.55;79.23;100679.84;4946631;29;20221;-77
2021/12/13 03:08:53;;;;;;;8.73;6.22;;;;;;;3.50;79.48;100683.41;4946092;29;20200;-79
2021/12/13 03:11:24;;;;;;;10.85;7.10;;;;;;;3.47;79.67;100686.06;4946234;28;20292;-77
2021/12/13 03:13:59;;;;;;;9.05;6.60;;;;;;;3.42;80.00;100686.16;4952753;28;20459;-78
2021/12/13 03:16:32;;;;;;;8.73;6.53;;;;;;;3.41;79.55;100691.38;4946248;29;20207;-76
2021/12/13 03:19:08;;;;;;;9.65;7.05;;;;;;;3.38;80.09;100691.44;4945736;28;20228;-76
2021/12/13 03:21:52;;;;;;;8.35;5.80;;;;;;;3.33;80.15;100700.16;4947665;28;20224;-76
2021/12/13 03:24:18;;;;;;;7.97;6.45;;;;;;;3.30;79.98;100696.75;4946844;29;20250;-76
2021/12/13 03:26:59;;;;;;;7.55;6.50;;;;;;;3.25;80.10;100691.63;4944339;28;20212;-76
2021/12/13 03:29:50;;;;;;;9.68;7.10;;;;;;;3.23;80.33;100695.97;4946885;29;20220;-76
2021/12/13 03:32:17;;;;;;;11.05;8.27;;;;;;;3.18;80.48;100691.75;4946353;28;20301;-76
2021/12/13 03:34:54;;;;;;;9.00;6.85;;;;;;;3.14;80.32;100698.75;4946910;28;20213;-76
2021/12/13 03:37:23;;;;;;;8.63;7.20;;;;;;;3.09;80.51;100685.81;4947356;28;20209;-78
2021/12/13 03:39:53;;;;;;;8.50;6.75;;;;;;;3.06;80.59;100688.47;4950053;28;20200;-76
2021/12/13 03:42:40;;;;;;;11.27;7.30;;;;;;;3.04;80.64;100694.56;4949352;28;20233;-76
2021/12/13 03:45:14;;;;;;;9.23;6.72;;;;;;;2.96;80.80;100686.88;4950820;28;20260;-76
2021/12/13 03:47:44;;;;;;;7.72;6.95;;;;;;;2.91;80.81;100680.06;4959003;29;20209;-76
2021/12/13 03:50:15;;;;;;;8.70;7.80;;;;;;;2.81;80.66;100682.78;4957555;29;20243;-76
2021/12/13 03:52:44;;;;;;;9.20;6.88;;;;;;;2.73;81.35;100683.75;4950909;28;20240;-78
2021/12/13 03:55:15;;;;;;;8.13;6.13;;;;;;;2.68;81.00;100683.00;4950197;29;20208;-76
2021/12/13 03:57:46;;;;;;;7.55;6.40;;;;;;;2.61;81.09;100685.66;4949443;29;20654;-78
2021/12/13 04:00:15;;;;;;;7.68;6.88;;;;;;;2.55;81.22;100695.25;4963053;28;20764;-76
2021/12/13 04:02:41;;;;;;;9.43;6.90;;;;;;;2.51;81.24;100696.16;4949717;28;20241;-76
2021/12/13 04:05:13;;;;;;;9.55;7.57;;;;;;;2.49;81.41;100690.16;4949242;28;20224;-76
2021/12/13 04:07:43;;;;;;;9.40;6.20;;;;;;;2.44;81.29;100696.25;4949858;29;20589;-77
2021/12/13 04:10:15;;;;;;;9.90;8.00;;;;;;;2.43;81.62;100701.44;4950009;28;20260;-77
2021/12/13 04:12:51;;;;;;;8.70;6.95;;;;;;;2.41;81.67;100693.72;4949442;28;20834;-77
2021/12/13 04:15:49;;;;;;;8.38;7.47;;;;;;;2.39;81.88;100687.69;4949344;29;20668;-76
2021/12/13 04:18:40;;;;;;;9.13;6.85;;;;;;;2.39;81.96;100700.63;4946405;29;20205;-76
2021/12/13 04:21:07;;;;;;;8.70;7.68;;;;;;;2.39;82.25;100702.38;4949075;29;20209;-75
2021/12/13 04:23:35;;;;;;;8.77;7.88;;;;;;;2.37;82.07;100706.72;4949137;28;20897;-76
2021/12/13 04:26:03;;;;;;;8.20;6.95;;;;;;;2.34;82.17;100698.97;4949032;28;20695;-77
2021/12/13 04:28:39;;;;;;;10.70;8.48;;;;;;;2.33;82.30;100698.13;4948603;29;20216;-76
2021/12/13 04:31:10;;;;;;;10.40;7.53;;;;;;;2.31;82.37;100691.25;4949619;29;20196;-76
2021/12/13 04:33:42;;;;;;;9.00;6.70;;;;;;;2.28;82.48;100693.88;4948927;28;20228;-76
2021/12/13 04:36:14;;;;;;;10.48;7.68;;;;;;;2.26;82.60;100690.44;4949350;29;20320;-77
2021/12/13 04:38:50;;;;;;;7.85;7.00;;;;;;;2.25;82.57;100699.09;4948811;29;20201;-77
2021/12/13 04:41:35;;;;;;;9.85;7.25;;;;;;;2.22;82.43;100689.63;4948686;29;20315;-76
2021/12/13 04:44:08;;;;;;;8.77;6.57;;;;;;;2.20;82.22;100683.59;4948954;28;20236;-76
2021/12/13 04:46:36;;;;;;;10.18;5.95;;;;;;;2.18;82.32;100690.53;4948788;29;20220;-77
2021/12/13 04:49:09;;;;;;;9.32;7.75;;;;;;;2.17;82.49;100688.81;4948509;28;20499;-77
2021/12/13 04:52:05;;;;;;;9.20;6.60;;;;;;;2.14;82.56;100696.66;4947837;28;20209;-76
2021/12/13 04:54:34;;;;;;;9.93;7.85;;;;;;;2.08;82.61;100694.09;4948229;28;20240;-76
2021/12/13 04:57:00;;;;;;;8.25;6.40;;;;;;;2.07;83.02;100689.81;4948647;28;20228;-76
2021/12/13 04:59:29;;;;;;;8.75;7.68;;;;;;;2.08;82.86;100691.50;4948606;28;20208;-76
2021/12/13 05:01:58;;;;;;;8.48;7.20;;;;;;;2.08;83.02;100691.50;4960499;28;20221;-77
2021/12/13 05:04:25;;;;;;;7.82;6.85;;;;;;;2.09;82.69;100688.91;4948297;29;20585;-77
2021/12/13 05:06:53;;;;;;;8.13;7.32;;;;;;;2.08;82.56;100679.44;4948376;28;20264;-77
2021/12/13 05:09:21;;;;;;;9.27;8.38;;;;;;;2.07;82.98;100688.06;4948866;29;20219;-77
2021/12/13 05:12:14;;;;;;;8.90;6.65;;;;;;;2.05;82.91;100694.13;4949024;28;20598;-77
2021/12/13 05:14:42;;;;;;;8.77;6.68;;;;;;;2.05;82.93;100694.13;4944383;28;20720;-77
2021/12/13 05:17:17;;;;;;;8.20;7.40;;;;;;;2.07;83.16;100698.44;4948038;29;20209;-77
2021/12/13 05:19:48;;;;;;;8.52;7.65;;;;;;;2.12;83.14;100695.78;4947649;29;20744;-77
2021/12/13 05:22:15;;;;;;;8.80;7.82;;;;;;;2.19;83.02;100695.72;4947368;28;20237;-76
2021/12/13 05:24:55;;;;;;;9.10;7.07;;;;;;;2.29;82.91;100704.22;4948213;28;20209;-78
2021/12/13 05:27:37;;;;;;;8.43;7.07;;;;;;;2.31;82.78;100694.69;4946603;29;20334;-78
2021/12/13 05:30:09;;;;;;;26.80;14.77;;;;;;;2.36;82.84;100698.09;4947444;29;20733;-76
2021/12/13 05:32:40;;;;;;;27.45;17.80;;;;;;;2.54;82.65;100694.41;4952647;28;20518;-75
2021/12/13 05:35:26;;;;;;;28.95;16.40;;;;;;;2.45;82.50;100694.50;4947917;28;20666;-76
2021/12/13 05:38:26;;;;;;;21.77;13.15;;;;;;;2.37;82.52;100702.38;4947024;29;20268;-76
2021/12/13 05:40:52;;;;;;;19.35;11.55;;;;;;;2.39;82.76;100700.63;4948780;28;20209;-76
2021/12/13 05:43:25;;;;;;;17.13;10.43;;;;;;;2.42;82.63;100690.22;4947487;28;20275;-79
2021/12/13 05:45:59;;;;;;;9.88;8.70;;;;;;;2.43;82.56;100697.16;4948684;29;20299;-78
2021/12/13 05:48:39;;;;;;;14.88;7.53;;;;;;;2.40;82.38;100696.31;4947765;28;20205;-76
2021/12/13 05:51:32;;;;;;;12.50;9.48;;;;;;;2.40;82.72;100694.59;4948842;29;20682;-76
2021/12/13 05:54:06;;;;;;;19.63;12.65;;;;;;;2.47;82.90;100700.53;4949135;29;20213;-76
2021/12/13 05:57:00;;;;;;;27.45;15.50;;;;;;;2.56;83.13;100689.19;4946269;29;20394;-78
2021/12/13 05:59:33;;;;;;;35.97;16.35;;;;;;;2.60;82.44;100681.34;4941136;28;20299;-77
2021/12/13 06:02:01;;;;;;;24.38;15.15;;;;;;;2.54;82.82;100684.03;4967878;28;20224;-79
2021/12/13 06:05:17;;;;;;;20.83;10.60;;;;;;;2.40;82.71;100693.72;4957203;29;20216;-78
2021/12/13 06:08:00;;;;;;;9.43;8.20;;;;;;;2.24;83.13;100695.63;4943548;29;20789;-76
2021/12/13 06:10:33;;;;;;;12.75;9.43;;;;;;;2.18;82.96;100693.13;4947784;29;20231;-78
2021/12/13 06:13:03;;;;;;;19.83;11.50;;;;;;;2.19;83.38;100692.28;4947854;28;20232;-76
2021/12/13 06:15:39;;;;;;;15.38;11.02;;;;;;;2.22;82.98;100692.22;4946993;29;20667;-77
2021/12/13 06:18:04;;;;;;;14.90;11.02;;;;;;;2.25;83.18;100684.41;4945905;28;20216;-79
2021/12/13 06:20:48;;;;;;;21.63;13.87;;;;;;;2.24;82.62;100682.66;4940139;28;20205;-79
2021/12/13 06:23:18;;;;;;;22.40;15.45;;;;;;;2.18;82.93;100677.56;4944667;28;20243;-79
2021/12/13 06:25:47;;;;;;;18.60;14.30;;;;;;;2.16;83.14;100684.50;4946280;29;20216;-76
2021/12/13 06:28:28;;;;;;;21.95;14.77;;;;;;;2.16;83.17;100689.69;4959218;28;20197;-78
2021/12/13 06:31:14;;;;;;;19.95;13.93;;;;;;;2.16;83.08;100694.88;4949658;29;20213;-77
2021/12/13 06:34:01;;;;;;;27.27;17.05;;;;;;;2.16;82.94;100693.16;4947438;28;20262;-76
2021/12/13 06:36:29;;;;;;;32.40;16.27;;;;;;;2.18;83.02;100693.13;4947699;28;20227;-77
2021/12/13 06:38:58;;;;;;;29.40;16.23;;;;;;;2.21;83.10;100700.84;4944414;29;20197;-76
2021/12/13 06:41:26;;;;;;;23.23;14.60;;;;;;;2.21;82.84;100700.84;4947057;28;20213;-77
2021/12/13 06:44:21;;;;;;;19.48;14.30;;;;;;;2.15;82.97;100699.19;4945693;28;20308;-78
2021/12/13 06:46:50;;;;;;;22.63;11.70;;;;;;;2.06;83.09;100707.09;4949168;29;20235;-75
2021/12/13 06:49:27;;;;;;;17.25;12.57;;;;;;;2.04;82.94;100700.22;4948789;28;20579;-77
2021/12/13 06:52:04;;;;;;;21.67;11.32;;;;;;;2.01;83.13;100710.63;4947884;28;20606;-76
2021/12/13 06:54:48;;;;;;;13.32;9.35;;;;;;;1.97;83.27;100714.94;4945276;28;20219;-78
2021/12/13 06:57:24;;;;;;;13.18;10.07;;;;;;;1.95;83.16;100712.41;4947519;29;20212;-78
2021/12/13 07:00:17;;;;;;;15.20;10.63;;;;;;;1.89;83.07;100725.41;4949673;28;20228;-78
2021/12/13 07:02:51;;;;;;;11.35;9.05;;;;;;;1.86;83.33;100728.00;4947291;28;20322;-77
2021/12/13 07:05:23;;;;;;;9.40;8.50;;;;;;;1.86;83.18;100727.16;4947079;28;20523;-76
2021/12/13 07:08:05;;;;;;;10.80;8.90;;;;;;;1.86;82.69;100728.00;4945806;29;20209;-77
2021/12/13 07:10:38;;;;;;;10.20;8.00;;;;;;;1.87;83.05;100728.91;4945014;29;20204;-77
2021/12/13 07:13:19;;;;;;;10.75;8.07;;;;;;;1.87;82.91;100723.72;4946222;28;20228;-76
2021/12/13 07:15:57;;;;;;;11.90;9.10;;;;;;;1.85;82.79;100741.84;4949277;29;20220;-79
2021/12/13 07:18:30;;;;;;;11.57;8.35;;;;;;;1.86;82.74;100742.69;4949355;28;20680;-76
2021/12/13 07:21:04;;;;;;;10.82;8.25;;;;;;;1.85;83.08;100741.84;4949755;29;20701;-76
2021/12/13 07:23:52;;;;;;;10.10;8.30;;;;;;;1.84;82.89;100747.91;4946305;28;20360;-78
2021/12/13 07:26:40;;;;;;;8.32;7.53;;;;;;;1.80;83.20;100753.13;4949307;28;20200;-78
2021/12/13 07:29:30;;;;;;;10.70;9.57;;;;;;;1.77;83.11;100760.06;4948619;29;20675;-76
2021/12/13 07:32:10;;;;;;;13.45;11.88;;;;;;;1.90;83.15;100766.00;4948234;28;20595;-78
2021/12/13 07:35:21;;;;;;;12.65;10.60;;;;;;;1.90;83.21;100758.22;4953315;28;20220;-77
2021/12/13 07:37:54;;;;;;;12.15;9.77;;;;;;;1.89;83.28;100766.00;4941797;29;20777;-77
2021/12/13 07:40:45;;;;;;;16.58;9.95;;;;;;;1.88;82.94;100769.47;4948828;28;20615;-79
2021/12/13 07:43:31;;;;;;;14.80;10.32;;;;;;;1.87;83.15;100778.13;4949391;28;20260;-77
2021/12/13 07:46:11;;;;;;;18.88;11.43;;;;;;;1.85;82.64;100778.13;4960110;28;20213;-76
2021/12/13 07:48:42;;;;;;;18.05;12.55;;;;;;;1.81;82.58;100767.78;4947369;29;20830;-77
2021/12/13 07:51:22;;;;;;;13.93;10.27;;;;;;;1.71;82.90;100774.81;4947766;29;20208;-79
2021/12/13 07:54:01;;;;;;;17.75;12.98;;;;;;;1.63;83.12;100774.00;4948487;28;20255;-77
2021/12/13 07:56:43;;;;;;;20.67;13.43;;;;;;;1.58;83.38;100773.19;4947019;29;20209;-77
2021/12/13 07:59:23;;;;;;;18.20;14.48;;;;;;;1.57;83.44;100774.91;4947756;29;20212;-78
2021/12/13 08:01:54;;;;;;;20.63;13.63;;;;;;;1.57;83.30;100781.81;4948328;28;20224;-77
2021/12/13 08:04:46;;;;;;;16.63;13.43;;;;;;;1.59;83.86;100782.66;4947222;29;20233;-79
2021/12/13 08:07:19;;;;;;;15.73;12.45;;;;;;;1.64;83.54;100773.13;4947597;29;20683;-77
2021/12/13 08:09:53;;;;;;;17.92;12.93;;;;;;;1.65;83.84;100780.03;4948472;28;20299;-77
2021/12/13 08:12:22;;;;;;;15.85;11.77;;;;;;;1.69;83.28;100781.72;4947617;28;20248;-77
2021/12/13 08:14:50;;;;;;;17.92;11.77;;;;;;;1.77;83.59;100793.72;4947926;28;20279;-77
2021/12/13 08:17:25;;;;;;;14.32;11.23;;;;;;;1.88;83.32;100795.38;4949130;28;20666;-78
2021/12/13 08:19:58;;;;;;;11.90;10.23;;;;;;;1.96;83.46;100790.97;4948379;29;20665;-77
2021/12/13 08:22:28;;;;;;;17.55;10.98;;;;;;;2.06;83.30;100796.94;4947906;28;20311;-76
2021/12/13 08:24:58;;;;;;;16.40;10.27;;;;;;;2.17;82.74;100795.94;4947793;28;20212;-77
2021/12/13 08:27:26;;;;;;;10.80;9.07;;;;;;;2.31;82.77;100790.63;4947005;29;20205;-78
2021/12/13 08:30:23;;;;;;;13.52;10.43;;;;;;;2.43;82.31;100787.91;4947187;29;20562;-77
2021/12/13 08:33:13;;;;;;;16.52;11.05;;;;;;;2.53;82.20;100787.78;4947151;28;20237;-77
2021/12/13 08:36:07;;;;;;;13.98;11.32;;;;;;;2.55;81.92;100791.22;4947494;29;20217;-76
2021/12/13 08:38:40;;;;;;;15.10;11.70;;;;;;;2.57;82.04;100798.13;4947449;29;20334;-77
2021/12/13 08:41:33;;;;;;;16.75;11.95;;;;;;;2.66;82.14;100799.72;4949260;28;20225;-76
2021/12/13 08:44:04;;;;;;;15.13;10.70;;;;;;;2.77;81.96;100794.41;4947074;29;20229;-77
2021/12/13 08:46:40;;;;;;;13.80;11.55;;;;;;;2.91;81.53;100800.28;4947953;29;20204;-77
2021/12/13 08:49:27;;;;;;;19.23;13.02;;;;;;;3.08;81.29;100798.34;4933529;29;20701;-77
2021/12/13 08:52:11;;;;;;;18.63;14.05;;;;;;;3.59;80.63;100797.56;4947981;28;20228;-77
2021/12/13 08:54:42;;;;;;;16.60;11.50;;;;;;;4.16;79.03;100787.06;4948610;29;20224;-77
2021/12/13 08:57:12;;;;;;;14.15;12.60;;;;;;;4.57;77.98;100782.81;4949502;29;20213;-79
2021/12/13 08:59:49;;;;;;;14.82;12.07;;;;;;;4.84;76.62;100785.75;4955623;28;20312;-78
2021/12/13 09:02:14;;;;;;;15.90;10.52;;;;;;;5.23;75.07;100777.94;4965698;28;20236;-78
2021/12/13 09:04:52;;;;;;;16.93;10.67;;;;;;;5.17;74.33;100775.47;4947748;28;20240;-78
2021/12/13 09:07:20;;;;;;;16.38;12.40;;;;;;;4.94;74.71;100778.56;4949906;29;20334;-76
2021/12/13 09:09:47;;;;;;;16.88;12.10;;;;;;;4.77;75.20;100779.78;4935777;28;20244;-76
2021/12/13 09:12:15;;;;;;;15.70;12.80;;;;;;;4.62;75.56;100782.72;4930088;29;20292;-76
2021/12/13 09:14:51;;;;;;;12.52;11.43;;;;;;;4.44;76.12;100779.59;4926325;29;20539;-76
2021/12/13 09:17:37;;;;;;;27.10;11.95;;;;;;;4.34;76.37;100782.41;4929286;29;20225;-76
2021/12/13 09:20:16;;;;;;;15.15;10.38;;;;;;;4.29;76.52;100782.47;4930203;29;20197;-75
2021/12/13 09:23:08;;;;;;;19.33;11.80;;;;;;;4.29;76.64;100781.63;4929917;29;20314;-77
2021/12/13 09:25:48;;;;;;;15.93;13.00;;;;;;;4.33;76.47;100789.34;4929201;29;20213;-77
2021/12/13 09:28:19;;;;;;;19.05;17.05;;;;;;;4.35;76.18;100789.34;4928190;29;20241;-77
2021/12/13 09:30:56;;;;;;;18.52;15.60;;;;;;;4.38;76.38;100789.28;4925639;28;20778;-76
2021/12/13 09:33:24;;;;;;;18.73;14.57;;;;;;;4.46;76.18;100781.31;4930938;29;20758;-78
2021/12/13 09:36:34;;;;;;;16.08;14.00;;;;;;;4.57;75.90;100782.81;4928658;29;20248;-77
2021/12/13 09:39:17;;;;;;;18.08;13.50;;;;;;;4.63;75.50;100782.69;4888480;29;20608;-77
2021/12/13 09:41:52;;;;;;;13.95;12.52;;;;;;;4.72;75.40;100784.22;4888812;29;20218;-77
2021/12/13 09:44:23;;;;;;;18.90;15.95;;;;;;;4.95;74.97;100785.50;4916386;29;20276;-77
2021/12/13 09:47:09;;;;;;;16.30;13.70;;;;;;;5.31;74.32;100776.00;4927886;29;20217;-76
2021/12/13 09:49:42;;;;;;;16.55;13.82;;;;;;;6.02;72.07;100774.28;4927863;29;20213;-77
2021/12/13 09:52:30;;;;;;;18.67;13.90;;;;;;;6.78;69.67;100772.19;4942906;29;20269;-76
2021/12/13 09:55:05;;;;;;;19.33;15.23;;;;;;;6.98;68.72;100760.28;4930159;29;20251;-77
2021/12/13 09:57:40;;;;;;;21.77;15.25;;;;;;;7.25;68.54;100759.44;4927742;29;20618;-77
2021/12/13 10:00:16;;;;;;;18.10;13.93;;;;;;;8.32;65.61;100751.50;4927923;29;20237;-77
2021/12/13 10:02:44;;;;;;;14.15;12.07;;;;;;;9.35;62.05;100743.22;4926769;29;20237;-76
2021/12/13 10:05:14;;;;;;;13.88;12.35;;;;;;;10.12;59.85;100740.00;4927770;29;20225;-76
2021/12/13 10:07:42;;;;;;;13.82;12.02;;;;;;;10.71;58.14;100736.50;4927228;29;20419;-78
2021/12/13 10:10:14;;;;;;;13.32;12.05;;;;;;;10.98;57.22;100730.88;4928587;29;20245;-78
2021/12/13 10:12:49;;;;;;;14.02;12.40;;;;;;;10.67;57.27;100723.59;4927596;29;20241;-77
2021/12/13 10:15:21;;;;;;;14.68;13.27;;;;;;;9.97;58.89;100728.41;4927393;29;20209;-77
2021/12/13 10:17:49;;;;;;;13.10;11.80;;;;;;;9.33;60.26;100726.69;4927480;29;20209;-78
2021/12/13 10:20:23;;;;;;;13.50;10.23;;;;;;;8.64;61.99;100721.50;4927717;29;20214;-77
2021/12/13 10:22:52;;;;;;;13.95;10.85;;;;;;;7.93;63.73;100728.44;4926670;29;20320;-78
2021/12/13 10:25:27;;;;;;;11.73;10.48;;;;;;;7.42;65.54;100727.50;4925715;29;20301;-76
2021/12/13 10:27:54;;;;;;;13.43;10.27;;;;;;;7.11;66.49;100732.03;4927955;29;20704;-76
2021/12/13 10:30:35;;;;;;;16.80;13.20;;;;;;;6.74;68.19;100731.38;4926255;29;20201;-76
2021/12/13 10:33:02;;;;;;;13.50;12.15;;;;;;;6.44;69.17;100733.13;4926669;29;20233;-76
2021/12/13 10:35:33;;;;;;;15.93;11.20;;;;;;;6.29;69.60;100726.63;4926641;29;20560;-77
2021/12/13 10:38:04;;;;;;;13.55;12.18;;;;;;;6.22;70.06;100719.00;4927717;29;20202;-77
2021/12/13 10:40:37;;;;;;;15.63;12.35;;;;;;;6.02;70.65;100724.75;4926983;29;20240;-77
2021/12/13 10:43:05;;;;;;;12.20;10.68;;;;;;;5.84;71.68;100724.31;4927735;29;20275;-77
2021/12/13 10:45:35;;;;;;;15.75;11.30;;;;;;;5.74;71.97;100715.00;4941058;29;20665;-78
2021/12/13 10:48:05;;;;;;;17.02;10.60;;;;;;;5.66;72.82;100711.75;4925820;29;20229;-77
2021/12/13 10:50:43;;;;;;;15.32;10.45;;;;;;;5.65;72.82;100707.44;4926066;29;20532;-78
2021/12/13 10:53:12;;;;;;;12.20;11.00;;;;;;;5.63;72.87;100710.06;4925471;29;20225;-77
2021/12/13 10:55:46;;;;;;;14.25;10.50;;;;;;;5.60;73.01;100710.16;4927297;29;20201;-77
2021/12/13 10:58:18;;;;;;;12.45;10.27;;;;;;;5.63;73.30;100714.44;4927088;29;20238;-76
2021/12/13 11:00:54;;;;;;;9.70;8.70;;;;;;;5.65;73.47;100710.91;4927256;29;20497;-77
2021/12/13 11:03:23;;;;;;;10.20;8.93;;;;;;;5.65;74.18;100703.09;4927251;29;20276;-77
2021/12/13 11:05:51;;;;;;;13.00;9.68;;;;;;;5.63;74.54;100701.41;4927788;29;20215;-77
2021/12/13 11:08:19;;;;;;;10.70;8.38;;;;;;;5.65;74.63;100702.22;4927990;29;20718;-77
2021/12/13 11:10:52;;;;;;;12.65;9.25;;;;;;;5.69;74.27;100707.31;4927707;29;20316;-77
2021/12/13 11:13:20;;;;;;;10.18;8.68;;;;;;;5.75;74.45;100709.78;4927658;29;20279;-76
2021/12/13 11:15:52;;;;;;;15.68;10.82;;;;;;;5.78;74.68;100698.41;4928224;29;20699;-78
2021/12/13 11:18:27;;;;;;;10.65;8.40;;;;;;;5.82;74.60;100693.97;4926994;29;20308;-77
2021/12/13 11:20:56;;;;;;;8.88;7.75;;;;;;;5.87;74.63;100689.47;4929450;29;20205;-76
2021/12/13 11:23:22;;;;;;;8.02;7.00;;;;;;;5.92;74.42;100685.84;4929651;29;20245;-76
2021/12/13 11:26:00;;;;;;;8.03;7.23;;;;;;;5.96;74.85;100684.88;4942213;29;20224;-79
2021/12/13 11:28:29;;;;;;;11.98;8.27;;;;;;;6.03;74.55;100682.97;4963777;28;20473;-78
2021/12/13 11:30:56;;;;;;;8.13;6.45;;;;;;;6.06;74.73;100677.69;4944401;29;20205;-77
2021/12/13 11:34:15;;;;;;;9.52;6.55;;;;;;;6.11;74.89;100682.78;4945604;29;20232;-78
2021/12/13 11:37:03;;;;;;;7.07;6.38;;;;;;;6.15;74.72;100679.16;4930174;29;20221;-77
2021/12/13 11:39:48;;;;;;;9.43;6.15;;;;;;;6.22;74.52;100679.88;4927329;29;20201;-76
2021/12/13 11:42:41;;;;;;;6.75;5.80;;;;;;;6.30;74.50;100673.53;4927638;29;20749;-77
2021/12/13 11:45:12;;;;;;;7.55;6.75;;;;;;;6.33;74.56;100665.59;4928407;29;20582;-77
2021/12/13 11:48:06;;;;;;;9.65;7.55;;;;;;;6.35;74.44;100661.19;4926919;29;20222;-76
2021/12/13 11:51:07;;;;;;;8.77;7.88;;;;;;;6.37;74.43;100664.63;4926534;29;20273;-77
2021/12/13 11:53:52;;;;;;;6.75;5.95;;;;;;;6.36;74.97;100670.72;4925663;29;20553;-77
2021/12/13 11:56:23;;;;;;;8.10;5.95;;;;;;;6.45;74.56;100659.16;4927285;29;20273;-76
2021/12/13 11:59:26;;;;;;;8.05;6.50;;;;;;;6.51;74.27;100653.78;4926862;29;20450;-77
2021/12/13 12:02:10;;;;;;;8.52;7.60;;;;;;;6.55;74.28;100659.75;4929971;29;20229;-77
2021/12/13 12:09:02;;;;;;;7.80;5.45;;;;;;;6.65;74.73;100642.91;4920085;29;20260;-87
2021/12/13 12:11:34;;;;;;;7.05;5.75;;;;;;;6.70;74.44;100643.63;4922317;29;20208;-87
2021/12/13 12:14:10;;;;;;;6.40;5.80;;;;;;;6.76;74.34;100635.59;4922139;29;20206;-86
2021/12/13 12:16:43;;;;;;;7.97;6.90;;;;;;;6.81;74.09;100640.69;4921773;29;20206;-87
2021/12/13 12:19:17;;;;;;;7.45;5.80;;;;;;;6.79;74.11;100629.41;4922770;29;20205;-85
2021/12/13 12:22:04;;;;;;;6.75;6.07;;;;;;;6.82;74.26;100632.78;4921919;29;20299;-86